Blanding, UT

12:12 AM MDT on April 27, 2015 (GMT -0600)
USU Eastern Blanding Campus | | Change Station
CLOSE
Current Station
Personal Weather Station
Location: Blanding, UT
Elevation: 6099 ft
Nearby Weather Stations

Elev 6099 ft 37.62 °N, 109.49 °W | Updated 27 seconds ago

Overcast
Overcast
45.5 °F
Feels Like 41 °F
N
8.1
Wind Variable Wind from WNW
Gusts 14.0 mph

Today
High -- | Low -- °F
--% Chance of Precip.
Yesterday
High -- | Low -- °F
Precip. -- in
6:27 AM 8:04 PM
Waxing Gibbous, 62% visible
Pressure 29.98 in
Visibility 10.0 miles
Clouds Clear
Windchill 41 °F
Dew Point 33 °F
Humidity 62%
Rainfall 0.01 in
Snow Depth Not available.
UV 0.0 out of 12
Pollen .90 out of 12
Air Quality Not available.
Flu Activity Local Activity
METAR KBDG 270555Z AUTO 32013G20KT 10SM CLR 09/00 A2998 RMK AO1 T00850003 10207 21050

More Conditions Fewer Conditions

Pressure 29.98 in
Visibility 10.0 miles
Clouds Clear
Windchill 41 °F
Dew Point 33 °F
Humidity 62%
Rainfall 0.01 in
Snow Depth Not available.
UV 0.0 out of 12
Pollen .90 out of 12
Air Quality Not available.
Flu Activity Local Activity
METAR KBDG 270555Z AUTO 32013G20KT 10SM CLR 09/00 A2998 RMK AO1 T00850003 10207 21050

More Conditions Fewer Conditions

10-Day Weather Forecast

Almanac

Astronomy

Apr. 27, 2015 Rise Set
Actual Time
Civil Twilight
Nautical Twilight
Astronomical Twilight
Moon
Length of Visible Light
Length of Day
Tomorrow will be .
, % of the Moon is Illuminated

Today's Extremes

State Highs State Lows

Community

WunderPhotos

Upload Photos

1,817,272 photos uploaded!

WunderBlogs® & News

Nearby

Air Quality

  Air Quality AQ Index Pollutant
Not available.

Snow Depth

Station Depth Elevation

Earthquake Activity

City Distance Mag. Time & Date
Minimum magnitude displayed is 2.5.

Coastal Water Temperatures

Place Temperature

Stations

Nearby Weather Stations

Station Location Temp. Windchill Dew Point Humidity Wind Precip. Elev Updated Type